Time;durP1;ratioP1;P1;durP2;ratioP2;P2;SDS_P1;SDS_P2;PMS_P1;PMS_P2;Temp;Humidity;BMP_temperature;BMP_pressure;BME280_temperature;BME280_humidity;BME280_pressure;Samples;Min_cycle;Max_cycle;Signal;HPM_P1;HPM_P2
2023/04/09 00:02:11;;;;;;;8.90;4.58;;;;;;;10.26;85.88;100881.91;1777903;79;21049;-58
2023/04/09 00:04:41;;;;;;;10.82;5.10;;;;;;;10.23;85.95;100876.80;1778043;79;21410;-59
2023/04/09 00:07:10;;;;;;;14.43;4.55;;;;;;;10.20;86.08;100882.65;1778054;80;21438;-57
2023/04/09 00:09:41;;;;;;;9.53;4.55;;;;;;;10.20;86.18;100882.65;1777869;81;20991;-58
2023/04/09 00:12:12;;;;;;;7.95;4.22;;;;;;;10.19;86.13;100882.28;1777920;79;21454;-58
2023/04/09 00:14:42;;;;;;;7.87;5.03;;;;;;;10.17;86.09;100881.62;1778107;79;21160;-58
2023/04/09 00:17:11;;;;;;;12.82;5.00;;;;;;;10.14;86.17;100881.98;1778177;80;20986;-57
2023/04/09 00:19:41;;;;;;;12.53;4.83;;;;;;;10.11;86.28;100876.36;1777627;80;21414;-59
2023/04/09 00:22:11;;;;;;;14.10;5.87;;;;;;;10.11;86.32;100879.09;1777975;81;21126;-58
2023/04/09 00:24:40;;;;;;;13.30;5.85;;;;;;;10.10;86.41;100871.06;1778275;81;21034;-58
2023/04/09 00:27:09;;;;;;;9.55;5.00;;;;;;;10.08;86.43;100878.61;1777700;79;21014;-58
2023/04/09 00:29:39;;;;;;;11.83;5.10;;;;;;;10.05;86.51;100870.24;1777824;79;21014;-58
2023/04/09 00:32:07;;;;;;;7.45;4.15;;;;;;;10.04;86.61;100874.53;1778048;79;21054;-59
2023/04/09 00:34:37;;;;;;;7.87;4.22;;;;;;;10.02;86.67;100875.23;1777862;79;21073;-57
2023/04/09 00:37:06;;;;;;;10.80;4.90;;;;;;;10.00;86.77;100874.56;1778151;79;21054;-57
2023/04/09 00:39:35;;;;;;;10.58;5.08;;;;;;;9.98;86.87;100869.79;1778112;81;20999;-58
2023/04/09 00:42:05;;;;;;;12.07;5.70;;;;;;;9.96;86.91;100869.12;1770958;79;21490;-58
2023/04/09 00:44:35;;;;;;;11.28;5.67;;;;;;;9.93;86.91;100874.44;1770461;80;21039;-59
2023/04/09 00:47:05;;;;;;;10.23;5.22;;;;;;;9.88;86.95;100874.13;1770060;81;20971;-59
2023/04/09 00:49:35;;;;;;;12.10;5.33;;;;;;;9.84;87.03;100877.75;1770277;81;21061;-59
2023/04/09 00:52:06;;;;;;;8.85;5.60;;;;;;;9.83;87.08;100879.30;1770150;81;20983;-58
2023/04/09 00:54:38;;;;;;;8.38;4.42;;;;;;;9.81;87.13;100880.00;1770287;79;21442;-57
2023/04/09 00:57:07;;;;;;;9.43;4.95;;;;;;;9.78;87.27;100873.52;1770160;79;21046;-61
2023/04/09 00:59:38;;;;;;;10.75;4.83;;;;;;;9.78;87.49;100872.15;1770175;81;21034;-57
2023/04/09 01:02:08;;;;;;;9.28;4.78;;;;;;;9.76;87.58;100872.33;1770230;81;21003;-57
2023/04/09 01:04:41;;;;;;;9.85;4.87;;;;;;;9.76;87.65;100872.33;1770409;79;21011;-57
2023/04/09 01:07:22;;;;;;;10.25;4.72;;;;;;;9.73;87.72;100874.03;1770997;79;20971;-58
2023/04/09 01:10:09;;;;;;;8.73;4.83;;;;;;;9.72;87.81;100874.21;1744029;79;21023;-59
2023/04/09 01:13:12;;;;;;;8.35;4.78;;;;;;;9.70;87.74;100878.50;1770752;80;21030;-57
2023/04/09 01:15:53;;;;;;;11.53;5.47;;;;;;;9.66;87.80;100878.52;1770358;81;21042;-57
2023/04/09 01:18:43;;;;;;;11.22;5.53;;;;;;;9.64;87.82;100878.36;1770113;80;21019;-58
2023/04/09 01:21:26;;;;;;;11.20;5.22;;;;;;;9.59;87.84;100883.01;1769882;80;21042;-58
2023/04/09 01:24:16;;;;;;;10.63;4.97;;;;;;;9.55;87.93;100880.30;1770336;81;20982;-58
2023/04/09 01:27:06;;;;;;;12.47;5.80;;;;;;;9.55;88.06;100876.19;1770210;80;21011;-58
2023/04/09 01:29:45;;;;;;;13.38;6.45;;;;;;;9.54;88.14;100882.69;1767340;81;21430;-58
2023/04/09 01:32:16;;;;;;;13.98;7.33;;;;;;;9.50;88.11;100884.94;1769923;81;21442;-59
2023/04/09 01:34:46;;;;;;;12.13;6.90;;;;;;;9.46;88.24;100882.22;1769905;79;21010;-59
2023/04/09 01:37:15;;;;;;;11.70;6.58;;;;;;;9.42;88.26;100885.48;1770107;81;21042;-60
2023/04/09 01:39:44;;;;;;;13.25;6.55;;;;;;;9.39;88.35;100874.91;1770179;81;21014;-58
2023/04/09 01:42:14;;;;;;;11.43;6.30;;;;;;;9.36;88.42;100881.59;1776271;80;21069;-57
2023/04/09 01:44:43;;;;;;;11.55;6.03;;;;;;;9.33;88.54;100884.68;1725176;81;21054;-58
2023/04/09 01:47:14;;;;;;;11.50;6.58;;;;;;;9.33;88.65;100882.45;1777698;79;20979;-57
2023/04/09 01:49:44;;;;;;;13.60;7.22;;;;;;;9.30;88.72;100876.83;1777717;79;21061;-58
2023/04/09 01:52:13;;;;;;;12.43;5.87;;;;;;;9.29;88.74;100874.27;1777653;80;21038;-57
2023/04/09 01:54:42;;;;;;;11.03;6.10;;;;;;;9.27;88.85;100883.17;1777766;79;21002;-57
2023/04/09 01:57:11;;;;;;;11.85;6.10;;;;;;;9.27;89.00;100877.70;1778051;81;21010;-57
2023/04/09 01:59:42;;;;;;;10.78;6.28;;;;;;;9.24;88.99;100876.69;1777675;79;21238;-57
2023/04/09 02:02:20;;;;;;;16.20;8.00;;;;;;;9.21;89.05;100880.63;1777901;79;21695;-58
2023/04/09 02:04:51;;;;;;;14.85;8.93;;;;;;;9.17;89.09;100879.28;1778197;79;21066;-57
2023/04/09 02:07:42;;;;;;;16.50;9.05;;;;;;;9.13;89.21;100888.86;1778025;80;21500;-58
2023/04/09 02:10:13;;;;;;;13.58;8.08;;;;;;;9.09;89.32;100892.44;1777938;79;21752;-58
2023/04/09 02:12:45;;;;;;;12.73;7.80;;;;;;;9.06;89.45;100891.42;1778091;79;21030;-59
2023/04/09 02:15:18;;;;;;;12.43;7.80;;;;;;;9.05;89.63;100895.18;1777809;81;21058;-59
2023/04/09 02:17:48;;;;;;;15.78;8.50;;;;;;;9.05;89.68;100890.23;1778054;81;21034;-59
2023/04/09 02:20:18;;;;;;;14.53;8.30;;;;;;;9.04;89.66;100897.58;1777937;81;21053;-58
2023/04/09 02:22:47;;;;;;;13.10;8.18;;;;;;;8.99;89.53;100900.50;1778128;79;21054;-57
2023/04/09 02:25:18;;;;;;;16.65;8.13;;;;;;;8.94;89.60;100899.66;1778087;81;21492;-58
2023/04/09 02:27:49;;;;;;;11.15;7.00;;;;;;;8.91;89.58;100902.73;1777941;79;21471;-58
2023/04/09 02:30:19;;;;;;;27.52;14.87;;;;;;;8.88;89.61;100904.45;1777948;79;21454;-56
2023/04/09 02:32:48;;;;;;;26.05;14.65;;;;;;;8.82;89.51;100908.73;1747643;81;21066;-58
2023/04/09 02:35:19;;;;;;;23.27;12.95;;;;;;;8.72;89.44;100907.22;1778082;79;21002;-57
2023/04/09 02:37:50;;;;;;;15.23;8.60;;;;;;;8.66;89.73;100909.28;1777854;81;21007;-57
2023/04/09 02:40:20;;;;;;;12.13;7.65;;;;;;;8.65;90.01;100903.47;1777869;81;21038;-58
2023/04/09 02:42:51;;;;;;;12.82;7.40;;;;;;;8.63;90.14;100910.48;1770416;80;21030;-58
2023/04/09 02:45:20;;;;;;;14.87;7.40;;;;;;;8.63;90.29;100905.02;1769920;80;21043;-59
2023/04/09 02:47:51;;;;;;;11.20;6.67;;;;;;;8.63;90.51;100910.48;1716614;83;21047;-57
2023/04/09 02:50:21;;;;;;;10.25;6.25;;;;;;;8.63;90.64;100905.53;1716671;83;21030;-58
2023/04/09 02:52:52;;;;;;;10.70;5.25;;;;;;;8.62;90.54;100905.19;1717039;83;21000;-58
2023/04/09 02:55:22;;;;;;;9.45;5.50;;;;;;;8.58;90.50;100906.90;1716749;83;21493;-57
2023/04/09 02:57:51;;;;;;;11.08;5.85;;;;;;;8.57;90.58;100906.56;1716631;83;21438;-57
2023/04/09 03:00:22;;;;;;;11.40;5.28;;;;;;;8.58;90.71;100901.44;1716617;83;21055;-57
2023/04/09 03:02:53;;;;;;;9.75;5.17;;;;;;;8.60;90.74;100901.27;1716923;83;21455;-57
2023/04/09 03:05:23;;;;;;;10.32;5.67;;;;;;;8.60;90.60;100909.45;1729155;81;21488;-58
2023/04/09 03:07:53;;;;;;;11.85;5.62;;;;;;;8.57;90.59;100913.90;1770384;80;21043;-58
2023/04/09 03:10:22;;;;;;;11.33;5.42;;;;;;;8.56;90.65;100915.78;1770274;81;21459;-58
2023/04/09 03:12:51;;;;;;;9.65;5.62;;;;;;;8.54;90.52;100919.70;1770238;81;21098;-58
2023/04/09 03:15:20;;;;;;;12.85;5.97;;;;;;;8.52;90.56;100917.66;1770409;80;21003;-59
2023/04/09 03:17:52;;;;;;;14.03;5.33;;;;;;;8.53;90.58;100910.66;1770207;80;21038;-57
2023/04/09 03:20:22;;;;;;;12.37;5.10;;;;;;;8.54;90.46;100906.91;1770124;81;21047;-57
2023/04/09 03:22:51;;;;;;;9.08;5.15;;;;;;;8.52;90.39;100913.56;1770173;81;21046;-57
2023/04/09 03:25:27;;;;;;;11.53;4.87;;;;;;;8.49;90.38;100908.45;1767505;80;21428;-58
2023/04/09 03:27:56;;;;;;;10.40;4.75;;;;;;;8.48;90.44;100911.69;1750489;81;21050;-58
2023/04/09 03:30:38;;;;;;;8.33;4.95;;;;;;;8.49;90.40;100916.64;1770153;81;21081;-58
2023/04/09 03:33:07;;;;;;;8.35;5.17;;;;;;;8.47;90.43;100907.77;1770148;81;21058;-57
2023/04/09 03:35:39;;;;;;;10.98;5.58;;;;;;;8.47;90.35;100905.89;1769378;81;21078;-58
2023/04/09 03:38:08;;;;;;;10.40;5.40;;;;;;;8.44;90.39;100912.17;1770334;81;20983;-58
2023/04/09 03:40:37;;;;;;;9.10;5.25;;;;;;;8.43;90.46;100909.09;1770344;80;21018;-58
2023/04/09 03:43:08;;;;;;;15.55;6.30;;;;;;;8.42;90.54;100912.34;1785315;79;21108;-57
2023/04/09 03:45:37;;;;;;;10.68;6.35;;;;;;;8.41;90.58;100913.36;1786726;79;21048;-57
2023/04/09 03:48:15;;;;;;;11.03;6.20;;;;;;;8.41;90.74;100917.46;1785616;80;21037;-57
2023/04/09 03:50:44;;;;;;;11.63;6.22;;;;;;;8.42;90.87;100909.61;1786931;80;21014;-58
2023/04/09 03:53:15;;;;;;;11.28;6.62;;;;;;;8.44;90.93;100908.92;1786681;80;21081;-58
2023/04/09 03:55:46;;;;;;;12.60;6.55;;;;;;;8.46;90.97;100909.64;1786907;80;21010;-60
2023/04/09 03:58:17;;;;;;;11.48;5.90;;;;;;;8.46;91.15;100904.18;1785967;80;21057;-57
2023/04/09 04:00:48;;;;;;;11.08;6.70;;;;;;;8.51;91.36;100904.52;1786744;80;21488;-57
2023/04/09 04:03:34;;;;;;;13.32;6.70;;;;;;;8.57;91.43;100912.53;1786545;79;21018;-57
2023/04/09 04:06:10;;;;;;;11.73;6.77;;;;;;;8.59;91.45;100917.31;1786117;80;21014;-58
2023/04/09 04:08:53;;;;;;;9.70;6.42;;;;;;;8.63;91.54;100906.89;1759668;79;21461;-59
2023/04/09 04:11:27;;;;;;;14.50;6.45;;;;;;;8.68;91.49;100909.95;1786582;79;21010;-58
2023/04/09 04:13:58;;;;;;;14.18;7.00;;;;;;;8.69;91.42;100912.52;1758949;80;21438;-58
2023/04/09 04:16:28;;;;;;;14.60;6.65;;;;;;;8.71;91.42;100918.66;1786990;80;21061;-57
2023/04/09 04:18:57;;;;;;;15.25;6.65;;;;;;;8.74;91.37;100920.19;1786658;79;21041;-58
2023/04/09 04:21:27;;;;;;;10.72;6.58;;;;;;;8.76;91.45;100917.63;1786643;79;21045;-57
2023/04/09 04:23:58;;;;;;;12.37;6.78;;;;;;;8.81;91.56;100926.67;1786736;79;21062;-58
2023/04/09 04:26:30;;;;;;;13.20;7.00;;;;;;;8.86;91.57;100925.64;1786819;79;21056;-58
2023/04/09 04:28:59;;;;;;;15.38;6.90;;;;;;;8.92;91.46;100923.58;1786868;79;20997;-58
2023/04/09 04:31:30;;;;;;;13.22;6.67;;;;;;;8.97;91.47;100922.53;1781438;80;21016;-58
2023/04/09 04:34:00;;;;;;;14.18;6.87;;;;;;;9.00;91.25;100926.80;1786717;80;21598;-57
2023/04/09 04:36:29;;;;;;;15.35;7.67;;;;;;;9.03;91.23;100927.81;1786878;79;21053;-58
2023/04/09 04:39:00;;;;;;;14.60;7.53;;;;;;;9.06;91.14;100933.78;1786898;79;21394;-58
2023/04/09 04:41:31;;;;;;;16.52;7.95;;;;;;;9.09;90.93;100930.70;1784933;79;21073;-57
2023/04/09 04:44:05;;;;;;;13.08;7.40;;;;;;;9.11;90.83;100935.52;1776222;79;21267;-58
2023/04/09 04:46:35;;;;;;;14.18;7.90;;;;;;;9.13;90.85;100930.72;1776996;80;21030;-57
2023/04/09 04:49:06;;;;;;;18.30;7.92;;;;;;;9.17;90.90;100932.08;1776860;81;21054;-58
2023/04/09 04:51:37;;;;;;;17.30;7.30;;;;;;;9.23;91.06;100929.16;1778449;79;21006;-59
2023/04/09 04:54:09;;;;;;;10.45;6.42;;;;;;;9.34;91.12;100934.75;1777807;80;21057;-58
2023/04/09 04:56:38;;;;;;;13.50;6.53;;;;;;;9.43;91.06;100938.65;1777240;79;21046;-60
2023/04/09 04:59:17;;;;;;;12.50;6.95;;;;;;;9.55;91.10;100935.01;1776182;80;21502;-59
2023/04/09 05:02:07;;;;;;;12.05;6.85;;;;;;;9.63;90.66;100930.02;1776119;79;21010;-58
2023/04/09 05:04:38;;;;;;;14.75;7.40;;;;;;;9.71;90.40;100933.56;1775472;79;21462;-58
2023/04/09 05:07:10;;;;;;;13.22;6.92;;;;;;;9.79;90.08;100945.86;1775902;79;21054;-58
2023/04/09 05:09:43;;;;;;;13.70;6.65;;;;;;;9.83;89.49;100940.37;1775842;79;21010;-58
2023/04/09 05:12:16;;;;;;;10.70;6.17;;;;;;;9.82;89.04;100941.40;1776352;80;21399;-58
2023/04/09 05:14:48;;;;;;;11.88;6.45;;;;;;;9.89;89.08;100946.16;1776075;81;20971;-57
2023/04/09 05:17:16;;;;;;;14.90;6.65;;;;;;;9.99;88.86;100953.62;1776423;79;21151;-60
2023/04/09 05:19:51;;;;;;;15.00;6.58;;;;;;;10.05;88.53;100945.53;1775985;79;21014;-62
2023/04/09 05:22:22;;;;;;;18.65;7.12;;;;;;;10.12;88.12;100945.14;1776342;79;21074;-57
2023/04/09 05:24:53;;;;;;;19.67;10.45;;;;;;;10.19;87.95;100946.64;1775984;79;21446;-57
2023/04/09 05:27:26;;;;;;;16.55;10.72;;;;;;;10.25;87.61;100944.57;1776209;79;21038;-59
2023/04/09 05:29:57;;;;;;;17.52;10.58;;;;;;;10.32;87.06;100944.70;1776025;79;21078;-60
2023/04/09 05:32:29;;;;;;;17.77;11.65;;;;;;;10.38;86.03;100952.18;1775796;79;21046;-57
2023/04/09 05:35:01;;;;;;;15.72;10.60;;;;;;;10.40;85.33;100950.99;1775903;81;21066;-58
2023/04/09 05:37:31;;;;;;;19.67;10.63;;;;;;;10.43;84.70;100948.41;1776467;80;21442;-59
2023/04/09 05:40:01;;;;;;;18.25;11.83;;;;;;;10.46;84.11;100946.16;1775906;81;21050;-58
2023/04/09 05:42:32;;;;;;;18.02;11.18;;;;;;;10.48;83.73;100948.19;1776264;80;21054;-59
2023/04/09 05:45:08;;;;;;;19.65;11.30;;;;;;;10.48;83.16;100944.08;1776236;80;21125;-58
2023/04/09 05:47:40;;;;;;;18.62;10.95;;;;;;;10.49;82.56;100946.30;1777959;80;20991;-58
2023/04/09 05:50:11;;;;;;;21.42;10.58;;;;;;;10.52;82.48;100950.56;1776690;81;21458;-58
2023/04/09 05:52:43;;;;;;;19.00;10.48;;;;;;;10.53;82.08;100951.75;1777540;81;21390;-57
2023/04/09 05:55:13;;;;;;;16.80;9.93;;;;;;;10.57;82.09;100948.12;1777661;81;21078;-59
2023/04/09 05:57:53;;;;;;;;;;;;;;;10.61;82.03;100953.56;1779942;79;21030;-59
2023/04/09 06:00:22;;;;;;;14.85;8.93;;;;;;;10.65;81.84;100950.78;1778015;81;20156;-57
2023/04/09 06:02:52;;;;;;;18.87;9.18;;;;;;;10.69;81.99;100958.45;1777852;79;21601;-59
2023/04/09 06:05:22;;;;;;;19.17;12.75;;;;;;;10.80;82.06;100961.27;1777862;81;20983;-59
2023/04/09 06:07:52;;;;;;;23.98;14.87;;;;;;;10.92;81.71;100961.16;1777207;79;21109;-59
2023/04/09 06:10:23;;;;;;;27.87;16.73;;;;;;;11.04;81.16;100962.41;1747689;81;21019;-58
2023/04/09 06:12:59;;;;;;;27.50;17.77;;;;;;;11.10;80.59;100963.05;1778207;81;21030;-58
2023/04/09 06:15:29;;;;;;;29.87;19.15;;;;;;;11.18;80.49;100964.86;1711035;83;21027;-58
2023/04/09 06:17:58;;;;;;;24.90;15.75;;;;;;;11.25;80.09;100965.81;1711115;84;21103;-59
2023/04/09 06:20:29;;;;;;;23.92;14.90;;;;;;;11.33;79.66;100964.86;1711807;84;21051;-59
2023/04/09 06:22:59;;;;;;;19.35;12.05;;;;;;;11.44;79.50;100960.28;1711349;84;21055;-59
2023/04/09 06:25:28;;;;;;;20.92;13.98;;;;;;;11.58;79.19;100966.80;1711207;82;21071;-59
2023/04/09 06:27:57;;;;;;;22.02;14.23;;;;;;;11.68;78.91;100961.34;1711174;84;21086;-58
2023/04/09 06:30:30;;;;;;;19.30;10.58;;;;;;;11.80;78.74;100968.63;1711395;84;21459;-60
2023/04/09 06:33:00;;;;;;;10.95;7.83;;;;;;;11.92;78.42;100968.47;1726332;81;21050;-58
2023/04/09 06:35:30;;;;;;;11.75;7.30;;;;;;;12.05;78.05;100975.49;1777911;79;21572;-58
2023/04/09 06:38:03;;;;;;;10.48;6.00;;;;;;;12.19;77.10;100974.27;1777942;81;20975;-58
2023/04/09 06:40:32;;;;;;;10.85;6.72;;;;;;;12.27;75.92;100970.88;1778143;80;20978;-57
2023/04/09 06:43:01;;;;;;;11.83;7.37;;;;;;;12.32;74.88;100973.89;1777427;79;21066;-58
2023/04/09 06:45:32;;;;;;;11.43;6.37;;;;;;;12.34;74.52;100970.42;1776611;81;21002;-59
2023/04/09 06:48:01;;;;;;;11.22;5.90;;;;;;;12.43;73.57;100970.33;1777624;79;21471;-61
2023/04/09 06:50:32;;;;;;;10.32;5.00;;;;;;;12.48;73.30;100972.81;1711458;83;21042;-57
2023/04/09 06:53:03;;;;;;;10.15;5.87;;;;;;;12.54;72.88;100973.92;1711375;84;21075;-58
2023/04/09 06:55:32;;;;;;;13.93;5.75;;;;;;;12.59;72.45;100967.31;1711589;84;21067;-58
2023/04/09 06:58:03;;;;;;;11.18;6.35;;;;;;;12.68;72.53;100972.48;1711301;84;21079;-59
2023/04/09 07:00:32;;;;;;;10.63;6.00;;;;;;;12.77;71.55;100969.59;1711302;84;21517;-58
2023/04/09 07:03:04;;;;;;;9.88;6.00;;;;;;;12.80;71.57;100971.42;1711560;84;21064;-58
2023/04/09 07:05:35;;;;;;;11.33;6.67;;;;;;;12.84;71.46;100971.34;1711419;84;21486;-59
2023/04/09 07:08:05;;;;;;;12.73;6.50;;;;;;;12.92;71.87;100980.83;1727187;79;21011;-58
2023/04/09 07:10:35;;;;;;;16.62;6.97;;;;;;;13.05;71.93;100980.13;1712103;83;21085;-57
2023/04/09 07:13:07;;;;;;;11.68;6.87;;;;;;;13.14;71.59;100978.92;1655106;87;21772;-58
2023/04/09 07:15:36;;;;;;;10.13;6.65;;;;;;;13.21;71.04;100979.84;1655084;87;21082;-58
2023/04/09 07:18:07;;;;;;;12.90;7.40;;;;;;;13.29;70.73;100981.06;1655236;87;21106;-57
2023/04/09 07:20:38;;;;;;;13.35;6.97;;;;;;;13.37;70.25;100980.06;1655271;87;21110;-59
2023/04/09 07:23:07;;;;;;;13.08;8.03;;;;;;;13.43;69.77;100977.02;1655302;87;21118;-58
2023/04/09 07:25:37;;;;;;;17.32;10.05;;;;;;;13.44;69.32;100979.58;1655321;87;21094;-58
2023/04/09 07:28:06;;;;;;;13.85;9.25;;;;;;;13.49;69.36;100981.20;1668311;84;21086;-59
2023/04/09 07:30:36;;;;;;;12.73;7.65;;;;;;;13.57;68.93;100975.52;1725013;81;21046;-57
2023/04/09 07:33:06;;;;;;;11.85;6.70;;;;;;;13.70;68.83;100969.80;1777593;79;21098;-57
2023/04/09 07:35:36;;;;;;;13.58;5.70;;;;;;;13.77;68.07;100974.80;1711587;83;20993;-59
2023/04/09 07:38:06;;;;;;;9.60;5.15;;;;;;;13.86;67.71;100974.95;1711492;84;21438;-59
2023/04/09 07:40:36;;;;;;;10.13;5.45;;;;;;;13.92;67.29;100970.00;1711189;82;21090;-59
2023/04/09 07:43:05;;;;;;;8.40;5.17;;;;;;;13.95;66.84;100970.97;1716858;83;21061;-57
2023/04/09 07:45:34;;;;;;;11.80;5.58;;;;;;;13.96;66.79;100968.53;1724946;83;21078;-58
2023/04/09 07:48:08;;;;;;;11.55;5.25;;;;;;;13.98;66.76;100967.80;1701601;83;21496;-59
2023/04/09 07:50:37;;;;;;;8.95;5.40;;;;;;;13.98;66.04;100965.05;1724771;82;21445;-57
2023/04/09 07:53:07;;;;;;;8.20;5.20;;;;;;;13.99;66.19;100961.23;1736794;81;21054;-59
2023/04/09 07:55:41;;;;;;;10.25;5.08;;;;;;;14.06;66.54;100959.88;1775924;80;20979;-58
2023/04/09 07:58:10;;;;;;;8.05;4.28;;;;;;;14.17;66.82;100957.37;1776001;81;21082;-58
2023/04/09 08:00:41;;;;;;;8.70;5.58;;;;;;;14.35;66.50;100960.09;1776080;80;21567;-58
2023/04/09 08:03:12;;;;;;;9.53;5.58;;;;;;;14.61;66.89;100951.89;1776406;79;21054;-57
2023/04/09 08:05:42;;;;;;;11.55;5.80;;;;;;;15.04;66.09;100949.59;1775994;81;21277;-58
2023/04/09 08:08:13;;;;;;;9.00;5.90;;;;;;;15.52;65.65;100948.75;1724844;83;21073;-57
2023/04/09 08:10:43;;;;;;;14.60;5.97;;;;;;;16.02;63.85;100950.43;1724891;83;21062;-58
2023/04/09 08:13:12;;;;;;;10.90;6.50;;;;;;;16.32;62.72;100947.95;1725065;83;20998;-59
2023/04/09 08:15:42;;;;;;;13.53;6.67;;;;;;;16.48;61.42;100950.73;1724885;83;21000;-58
2023/04/09 08:18:12;;;;;;;13.35;6.33;;;;;;;16.54;61.17;100958.67;1718935;83;21096;-58
2023/04/09 08:20:43;;;;;;;13.55;7.55;;;;;;;16.61;60.33;100952.55;1652922;86;21088;-58
2023/04/09 08:23:14;;;;;;;9.68;5.83;;;;;;;16.73;57.98;100950.25;1691050;83;21085;-58
2023/04/09 08:25:43;;;;;;;7.58;4.90;;;;;;;16.89;58.31;100953.00;1702435;82;21053;-60
2023/04/09 08:28:13;;;;;;;10.95;5.17;;;;;;;17.07;56.78;100951.70;1704789;83;21065;-61
2023/04/09 08:30:44;;;;;;;9.00;4.22;;;;;;;17.25;55.03;100948.11;1704346;83;21755;-59
2023/04/09 08:33:13;;;;;;;9.35;3.62;;;;;;;17.37;54.81;100949.05;1704981;83;21081;-59
2023/04/09 08:35:42;;;;;;;6.92;3.50;;;;;;;17.50;53.96;100949.98;1699102;84;21082;-58
2023/04/09 08:38:11;;;;;;;7.35;3.60;;;;;;;17.60;52.69;100943.41;1705091;84;21022;-58
2023/04/09 08:40:40;;;;;;;9.55;3.67;;;;;;;17.68;52.65;100947.29;1705122;83;21462;-59
2023/04/09 08:43:09;;;;;;;8.40;3.47;;;;;;;17.79;51.96;100942.35;1709163;82;21064;-59
2023/04/09 08:45:41;;;;;;;6.42;3.50;;;;;;;17.93;52.47;100945.27;1728318;82;21433;-58
2023/04/09 08:48:12;;;;;;;16.50;3.67;;;;;;;18.05;50.89;100930.08;1710037;84;21038;-59
2023/04/09 08:50:45;;;;;;;5.60;3.45;;;;;;;18.14;50.83;100925.05;1711257;83;21055;-58
2023/04/09 08:53:13;;;;;;;7.20;3.40;;;;;;;18.19;49.86;100927.42;1688806;84;21076;-59
2023/04/09 08:55:46;;;;;;;11.20;3.70;;;;;;;18.29;49.64;100924.11;1692766;84;21030;-58
2023/04/09 08:58:14;;;;;;;10.53;3.65;;;;;;;18.44;50.50;100923.14;1714236;82;21011;-59
2023/04/09 09:00:45;;;;;;;7.28;4.00;;;;;;;18.54;48.30;100922.56;1714601;82;21115;-59
2023/04/09 09:03:16;;;;;;;5.50;3.42;;;;;;;18.43;48.53;100924.77;1712273;84;21118;-58
2023/04/09 09:05:45;;;;;;;9.40;3.70;;;;;;;18.32;49.59;100929.19;1708149;82;21047;-59
2023/04/09 09:08:24;;;;;;;7.55;3.15;;;;;;;18.24;49.27;100922.59;1708214;82;21012;-59
2023/04/09 09:10:54;;;;;;;5.37;3.60;;;;;;;18.04;48.57;100927.84;1708026;83;21071;-60
2023/04/09 09:13:25;;;;;;;5.37;2.90;;;;;;;17.86;46.66;100928.41;1708113;83;21052;-59
2023/04/09 09:16:12;;;;;;;8.50;4.28;;;;;;;17.68;47.82;100922.34;1707988;84;21443;-57
2023/04/09 09:18:43;;;;;;;9.03;3.05;;;;;;;17.71;47.86;100923.27;1708749;82;21071;-59
2023/04/09 09:21:16;;;;;;;6.40;3.40;;;;;;;17.68;46.23;100927.34;1709899;83;21498;-60
2023/04/09 09:23:48;;;;;;;6.25;3.47;;;;;;;17.53;46.99;100931.52;1708611;83;21095;-58
2023/04/09 09:26:20;;;;;;;8.83;3.30;;;;;;;17.38;47.10;100929.97;1708460;83;21075;-59
2023/04/09 09:28:49;;;;;;;7.30;4.00;;;;;;;17.19;47.83;100935.18;1708241;84;21051;-59
2023/04/09 09:31:20;;;;;;;6.65;3.37;;;;;;;17.05;48.20;100923.39;1708493;84;21521;-58
2023/04/09 09:33:50;;;;;;;7.75;3.20;;;;;;;16.97;48.42;100915.37;1708425;82;21083;-59
2023/04/09 09:36:32;;;;;;;6.40;3.47;;;;;;;16.94;48.86;100917.21;1708216;82;21047;-58
2023/04/09 09:39:09;;;;;;;7.70;3.10;;;;;;;16.90;48.82;100916.48;1709668;83;21091;-58
2023/04/09 09:41:37;;;;;;;9.50;3.40;;;;;;;16.79;49.15;100926.36;1660423;86;22113;-61
2023/04/09 09:44:08;;;;;;;5.25;3.45;;;;;;;16.72;49.04;100915.88;1670087;85;21487;-60
2023/04/09 09:46:41;;;;;;;7.37;3.50;;;;;;;16.62;49.93;100921.89;1676306;85;21107;-59
2023/04/09 09:49:10;;;;;;;5.08;2.95;;;;;;;16.54;50.11;100907.48;1674352;85;21075;-59
2023/04/09 09:51:39;;;;;;;9.03;3.45;;;;;;;16.45;50.42;100906.38;1673628;86;21110;-58
2023/04/09 09:54:09;;;;;;;6.33;3.40;;;;;;;16.44;50.59;100904.69;1652914;85;21086;-58
2023/04/09 09:56:41;;;;;;;7.20;3.40;;;;;;;16.38;50.15;100908.88;1679592;85;21760;-61
2023/04/09 09:59:21;;;;;;;7.35;3.40;;;;;;;16.30;50.77;100909.15;1626052;88;21066;-57
2023/04/09 10:01:58;;;;;;;8.28;3.50;;;;;;;16.24;51.17;100905.86;1625775;88;21324;-58
2023/04/09 10:04:28;;;;;;;;;;;;;;;16.21;51.06;100901.63;1608682;88;21073;-58
2023/04/09 10:06:59;;;;;;;5.05;2.80;;;;;;;16.22;50.75;100899.70;1668738;85;20212;-58
2023/04/09 10:09:33;;;;;;;7.35;3.27;;;;;;;16.21;50.65;100903.54;1680117;85;21071;-59
2023/04/09 10:12:01;;;;;;;10.50;3.08;;;;;;;16.17;50.86;100897.08;1680229;85;21042;-60
2023/04/09 10:14:34;;;;;;;16.45;8.05;;;;;;;16.16;51.27;100897.30;1680004;85;21360;-58
2023/04/09 10:17:03;;;;;;;11.10;5.42;;;;;;;16.15;51.21;100895.06;1681318;82;21487;-59
2023/04/09 10:19:37;;;;;;;11.28;5.40;;;;;;;16.13;51.56;100894.44;1746721;82;21059;-60
2023/04/09 10:22:11;;;;;;;5.80;3.27;;;;;;;16.11;51.48;100892.97;1745413;81;21122;-58
2023/04/09 10:24:40;;;;;;;7.67;3.60;;;;;;;16.09;51.73;100894.57;1744367;81;21078;-59
2023/04/09 10:27:13;;;;;;;7.67;4.20;;;;;;;16.08;51.80;100890.64;1744385;82;21087;-59
2023/04/09 10:29:50;;;;;;;8.45;4.22;;;;;;;16.07;52.04;100892.56;1744518;81;21090;-59
2023/04/09 10:32:25;;;;;;;7.22;3.60;;;;;;;16.07;52.64;100882.89;1744567;81;21901;-59
2023/04/09 10:34:58;;;;;;;5.45;3.70;;;;;;;16.09;52.31;100894.57;1744512;81;21020;-58
2023/04/09 10:37:28;;;;;;;6.75;2.92;;;;;;;16.07;51.82;100902.23;1744629;82;21111;-59
2023/04/09 10:39:58;;;;;;;7.62;2.80;;;;;;;16.07;52.17;100891.72;1744159;81;21023;-60
2023/04/09 10:42:35;;;;;;;5.15;2.80;;;;;;;16.06;51.08;100882.58;1744348;82;21059;-59
2023/04/09 10:45:12;;;;;;;8.23;3.00;;;;;;;16.07;50.94;100883.42;1745159;81;21102;-59
2023/04/09 10:47:44;;;;;;;8.78;3.15;;;;;;;16.08;50.98;100885.97;1747262;81;21022;-58
2023/04/09 10:50:24;;;;;;;15.55;3.60;;;;;;;16.14;51.22;100871.25;1754711;80;21061;-61
2023/04/09 10:52:56;;;;;;;7.85;3.10;;;;;;;16.18;51.46;100868.35;1754482;80;21118;-58
2023/04/09 10:55:39;;;;;;;5.25;3.17;;;;;;;16.24;50.61;100861.62;1771524;81;21051;-59
2023/04/09 10:58:11;;;;;;;6.90;3.37;;;;;;;16.24;49.80;100874.06;1778567;81;21003;-59
2023/04/09 11:00:45;;;;;;;8.75;3.70;;;;;;;16.20;49.71;100865.90;1778461;81;21521;-59
2023/04/09 11:03:31;;;;;;;10.40;3.02;;;;;;;16.13;50.35;100867.33;1727156;83;21106;-58
2023/04/09 11:06:09;;;;;;;7.58;3.47;;;;;;;16.11;50.70;100859.79;1727037;83;21027;-58
2023/04/09 11:08:40;;;;;;;7.20;3.92;;;;;;;16.07;51.13;100862.69;1727088;83;21477;-61
2023/04/09 11:11:12;;;;;;;9.35;4.37;;;;;;;16.05;51.52;100854.62;1727121;83;21082;-59
2023/04/09 11:13:42;;;;;;;7.03;3.42;;;;;;;16.06;51.64;100853.55;1727112;83;21050;-59
2023/04/09 11:16:12;;;;;;;11.75;3.83;;;;;;;16.04;51.29;100857.07;1727144;83;21070;-59
2023/04/09 11:18:45;;;;;;;6.47;3.10;;;;;;;16.01;51.98;100835.94;1725629;83;21509;-58
2023/04/09 11:21:16;;;;;;;6.22;3.55;;;;;;;16.01;52.27;100841.47;1727310;83;21078;-59
2023/04/09 11:23:52;;;;;;;8.03;4.00;;;;;;;16.04;52.36;100851.55;1621888;87;21116;-57
2023/04/09 11:26:29;;;;;;;7.10;3.50;;;;;;;16.06;52.53;100844.41;1642661;87;21061;-58
2023/04/09 11:29:01;;;;;;;8.93;3.92;;;;;;;16.05;52.92;100840.80;1695059;84;21643;-56
2023/04/09 11:31:32;;;;;;;13.48;4.37;;;;;;;16.07;53.67;100839.19;1669046;84;21042;-58
2023/04/09 11:34:03;;;;;;;9.10;4.15;;;;;;;16.11;53.71;100833.53;1698246;84;21006;-59
2023/04/09 11:36:35;;;;;;;7.87;3.98;;;;;;;16.18;53.66;100829.64;1697976;84;21137;-59
2023/04/09 11:39:05;;;;;;;7.87;3.65;;;;;;;16.26;52.31;100834.09;1696449;84;21113;-57
2023/04/09 11:41:37;;;;;;;7.53;3.52;;;;;;;16.32;51.02;100824.89;1698215;84;21007;-60
2023/04/09 11:44:10;;;;;;;10.32;4.22;;;;;;;16.35;50.05;100826.36;1692435;84;21118;-60